Time;durP1;ratioP1;P1;durP2;ratioP2;P2;SDS_P1;SDS_P2;PMS_P1;PMS_P2;Temp;Humidity;BMP_temperature;BMP_pressure;BME280_temperature;BME280_humidity;BME280_pressure;Samples;Min_cycle;Max_cycle;Signal;HPM_P1;HPM_P2
2021/04/30 00:01:43;;;;;;;20.00;12.25;;;10.20;70.30;;;;;;5093749;28;20024;-82
2021/04/30 00:04:09;;;;;;;17.80;11.70;;;10.10;70.30;;;;;;5093027;28;20107;-82
2021/04/30 00:06:35;;;;;;;17.55;12.15;;;10.10;70.50;;;;;;5092918;28;20111;-82
2021/04/30 00:09:00;;;;;;;16.98;12.40;;;10.10;70.60;;;;;;5093453;28;20024;-81
2021/04/30 00:11:26;;;;;;;18.80;11.85;;;10.10;70.70;;;;;;5092761;28;20347;-82
2021/04/30 00:13:52;;;;;;;16.88;12.35;;;10.10;71.00;;;;;;5094030;28;20043;-82
2021/04/30 00:16:18;;;;;;;17.70;12.50;;;10.10;71.10;;;;;;5093818;28;20036;-82
2021/04/30 00:18:43;;;;;;;17.80;12.65;;;10.00;71.20;;;;;;5091453;28;20027;-80
2021/04/30 00:21:09;;;;;;;17.50;11.85;;;10.00;71.20;;;;;;5093547;28;20024;-82
2021/04/30 00:23:35;;;;;;;19.83;12.60;;;10.00;71.30;;;;;;5092896;28;20047;-82
2021/04/30 00:26:03;;;;;;;18.38;12.38;;;10.00;71.50;;;;;;5085238;28;20074;-81
2021/04/30 00:28:30;;;;;;;20.17;12.38;;;9.90;71.60;;;;;;5085461;28;20028;-80
2021/04/30 00:30:57;;;;;;;18.98;12.32;;;9.90;71.80;;;;;;5093780;28;20446;-82
2021/04/30 00:33:24;;;;;;;17.27;12.23;;;9.90;71.90;;;;;;5085980;28;20080;-81
2021/04/30 00:35:51;;;;;;;20.45;13.52;;;9.80;72.00;;;;;;5082610;28;20025;-81
2021/04/30 00:38:17;;;;;;;21.17;12.70;;;9.80;72.10;;;;;;5082632;28;20021;-82
2021/04/30 00:40:43;;;;;;;20.08;13.07;;;9.70;72.30;;;;;;5090195;28;20042;-81
2021/04/30 00:43:12;;;;;;;21.42;13.25;;;9.70;72.50;;;;;;5093488;28;20103;-82
2021/04/30 00:45:38;;;;;;;18.20;12.90;;;9.70;72.70;;;;;;5088674;28;20432;-81
2021/04/30 00:48:04;;;;;;;19.23;12.55;;;9.60;72.80;;;;;;5110816;28;20012;-81
2021/04/30 00:50:31;;;;;;;17.58;12.88;;;9.60;73.10;;;;;;5097174;28;20073;-81
2021/04/30 00:52:57;;;;;;;22.98;12.88;;;9.60;73.30;;;;;;5108502;28;20516;-82
2021/04/30 00:55:23;;;;;;;20.80;13.20;;;9.50;73.50;;;;;;5093106;28;20066;-82
2021/04/30 00:57:57;;;;;;;19.00;12.95;;;9.50;73.60;;;;;;5100276;28;20102;-82
2021/04/30 01:00:25;;;;;;;19.70;13.63;;;9.50;74.00;;;;;;5100620;28;20027;-82
2021/04/30 01:02:50;;;;;;;20.17;12.30;;;9.50;74.10;;;;;;5098992;28;20103;-82
2021/04/30 01:05:17;;;;;;;20.10;14.25;;;9.50;74.30;;;;;;5095791;28;20089;-82
2021/04/30 01:07:43;;;;;;;23.38;13.57;;;9.50;74.30;;;;;;5093660;28;20023;-81
2021/04/30 01:10:10;;;;;;;20.55;13.48;;;9.40;74.30;;;;;;5091490;28;20024;-81
2021/04/30 01:12:36;;;;;;;21.33;14.38;;;9.40;74.60;;;;;;5094762;28;20040;-81
2021/04/30 01:15:02;;;;;;;19.27;13.30;;;9.30;74.70;;;;;;5095284;28;20133;-81
2021/04/30 01:17:28;;;;;;;18.67;13.25;;;9.30;74.90;;;;;;5091568;28;20542;-81
2021/04/30 01:19:56;;;;;;;22.83;14.38;;;9.30;75.10;;;;;;5092188;28;20017;-81
2021/04/30 01:22:38;;;;;;;21.13;12.95;;;9.30;75.30;;;;;;5091413;28;20021;-81
2021/04/30 01:25:06;;;;;;;18.55;13.68;;;9.30;75.50;;;;;;5091407;28;20407;-81
2021/04/30 01:27:32;;;;;;;21.00;13.90;;;9.20;75.50;;;;;;5090960;28;20028;-80
2021/04/30 01:29:58;;;;;;;20.23;13.55;;;9.20;75.60;;;;;;5092518;28;20032;-81
2021/04/30 01:32:23;;;;;;;19.98;13.10;;;9.20;75.80;;;;;;5091416;28;20016;-82
2021/04/30 01:34:49;;;;;;;22.17;13.45;;;9.20;76.20;;;;;;5090806;28;20020;-82
2021/04/30 01:37:15;;;;;;;21.17;13.90;;;9.20;76.30;;;;;;5093061;28;20024;-82
2021/04/30 01:39:41;;;;;;;18.58;13.85;;;9.10;76.10;;;;;;5092516;28;20436;-82
2021/04/30 01:42:07;;;;;;;24.38;15.00;;;9.10;76.20;;;;;;5091421;28;20103;-82
2021/04/30 01:44:33;;;;;;;23.52;15.05;;;9.10;76.60;;;;;;5090356;28;20024;-81
2021/04/30 01:47:00;;;;;;;21.27;13.90;;;9.10;76.60;;;;;;5091352;28;20549;-82
2021/04/30 01:49:26;;;;;;;20.67;14.20;;;9.00;76.80;;;;;;5090901;28;20355;-81
2021/04/30 01:51:52;;;;;;;18.73;13.75;;;9.10;77.10;;;;;;5092854;28;20026;-82
2021/04/30 01:54:19;;;;;;;21.52;14.45;;;9.00;77.10;;;;;;5092413;28;20028;-82
2021/04/30 01:56:45;;;;;;;20.48;14.30;;;9.10;77.00;;;;;;5091209;28;20819;-81
2021/04/30 01:59:11;;;;;;;21.33;14.68;;;9.00;77.00;;;;;;5091859;28;20020;-82
2021/04/30 02:01:37;;;;;;;26.58;14.98;;;9.00;77.00;;;;;;5090790;28;20016;-82
2021/04/30 02:04:07;;;;;;;21.42;14.10;;;9.00;77.20;;;;;;5092594;28;20020;-81
2021/04/30 02:06:35;;;;;;;22.65;15.05;;;8.90;77.30;;;;;;5091015;28;20024;-80
2021/04/30 02:09:01;;;;;;;22.48;15.10;;;8.90;77.50;;;;;;5091177;28;20551;-82
2021/04/30 02:11:27;;;;;;;22.45;14.43;;;8.90;77.70;;;;;;5090950;28;20024;-80
2021/04/30 02:13:52;;;;;;;21.77;14.88;;;8.90;77.80;;;;;;5089462;28;20044;-82
2021/04/30 02:16:18;;;;;;;21.98;14.65;;;8.90;78.00;;;;;;5096625;28;20028;-83
2021/04/30 02:18:44;;;;;;;22.58;15.32;;;8.80;78.00;;;;;;5094190;28;20016;-82
2021/04/30 02:21:09;;;;;;;25.98;15.13;;;8.80;78.10;;;;;;5095469;28;20031;-82
2021/04/30 02:23:35;;;;;;;24.00;15.70;;;8.80;78.30;;;;;;5095191;28;20193;-81
2021/04/30 02:26:01;;;;;;;21.88;14.48;;;8.80;78.30;;;;;;5094534;28;20024;-81
2021/04/30 02:28:26;;;;;;;24.20;15.73;;;8.80;78.40;;;;;;5094266;28;20020;-80
2021/04/30 02:30:52;;;;;;;21.73;15.00;;;8.70;78.40;;;;;;5095259;28;20020;-81
2021/04/30 02:33:18;;;;;;;22.35;15.35;;;8.70;78.60;;;;;;5094885;28;20020;-81
2021/04/30 02:35:46;;;;;;;22.02;15.15;;;8.70;78.90;;;;;;5095674;28;20095;-82
2021/04/30 02:38:14;;;;;;;23.05;15.02;;;8.70;79.00;;;;;;5095746;28;20017;-82
2021/04/30 02:40:42;;;;;;;21.80;15.07;;;8.60;79.20;;;;;;5094657;28;20481;-81
2021/04/30 02:43:10;;;;;;;20.23;15.20;;;8.60;79.20;;;;;;5094446;28;20038;-81
2021/04/30 02:45:36;;;;;;;22.02;14.15;;;8.60;79.40;;;;;;5106534;28;20024;-82
2021/04/30 02:48:10;;;;;;;19.40;13.82;;;8.60;79.70;;;;;;5095477;28;20050;-82
2021/04/30 02:50:36;;;;;;;21.20;14.52;;;8.60;80.50;;;;;;5095416;28;20024;-82
2021/04/30 02:53:02;;;;;;;21.13;14.77;;;8.60;80.00;;;;;;5094425;28;20027;-82
2021/04/30 02:55:27;;;;;;;21.63;15.00;;;8.60;80.20;;;;;;5096064;28;20030;-82
2021/04/30 02:57:58;;;;;;;21.42;14.88;;;8.60;80.60;;;;;;5090217;28;20016;-82
2021/04/30 03:00:27;;;;;;;21.35;14.20;;;8.70;81.00;;;;;;5085242;28;20028;-82
2021/04/30 03:02:54;;;;;;;22.65;14.18;;;8.80;81.20;;;;;;5095762;28;20031;-82
2021/04/30 03:05:20;;;;;;;23.52;16.65;;;9.00;81.40;;;;;;5082958;28;20028;-82
2021/04/30 03:07:45;;;;;;;24.35;17.70;;;9.10;81.20;;;;;;5115468;28;20115;-82
2021/04/30 03:10:12;;;;;;;21.55;16.23;;;9.30;81.00;;;;;;5093367;28;20077;-83
2021/04/30 03:12:38;;;;;;;20.75;14.18;;;9.50;80.70;;;;;;5099824;28;20178;-82
2021/04/30 03:15:05;;;;;;;22.65;14.00;;;9.70;80.50;;;;;;5098570;28;20016;-81
2021/04/30 03:17:31;;;;;;;18.55;14.55;;;9.90;80.00;;;;;;5108914;28;20104;-82
2021/04/30 03:19:57;;;;;;;17.95;14.02;;;10.10;79.20;;;;;;5101238;28;20020;-80
2021/04/30 03:22:22;;;;;;;21.48;14.82;;;10.20;78.40;;;;;;5109455;28;20043;-82
2021/04/30 03:24:48;;;;;;;19.23;14.07;;;10.30;77.90;;;;;;5103659;28;20024;-82
2021/04/30 03:27:14;;;;;;;19.35;13.57;;;10.50;77.70;;;;;;5098296;28;20036;-82
2021/04/30 03:29:39;;;;;;;20.17;14.20;;;10.60;77.20;;;;;;5098143;28;20020;-83
2021/04/30 03:32:07;;;;;;;19.38;13.48;;;10.90;76.90;;;;;;5095517;28;20028;-83
2021/04/30 03:34:36;;;;;;;17.23;13.40;;;11.10;76.40;;;;;;5092407;28;20024;-83
2021/04/30 03:37:03;;;;;;;18.45;12.65;;;11.30;75.80;;;;;;5093036;28;20460;-82
2021/04/30 03:39:29;;;;;;;20.83;13.30;;;11.50;75.20;;;;;;5095174;28;20020;-84
2021/04/30 03:41:55;;;;;;;17.95;12.90;;;11.80;74.50;;;;;;5092987;28;20020;-84
2021/04/30 03:44:21;;;;;;;19.50;12.55;;;12.10;73.90;;;;;;5091406;28;20028;-83
2021/04/30 03:46:47;;;;;;;17.48;12.40;;;12.30;73.50;;;;;;5093968;28;20034;-83
2021/04/30 03:49:13;;;;;;;17.25;12.57;;;12.60;72.70;;;;;;5094613;28;20361;-82
2021/04/30 03:51:38;;;;;;;20.70;12.57;;;12.90;72.20;;;;;;5094611;28;20031;-84
2021/04/30 03:54:04;;;;;;;17.30;12.73;;;13.20;71.30;;;;;;5092382;28;20335;-83
2021/04/30 03:56:30;;;;;;;17.80;12.95;;;13.60;70.60;;;;;;5090816;28;20351;-84
2021/04/30 03:58:56;;;;;;;17.35;12.05;;;13.90;70.00;;;;;;5092194;28;20066;-83
2021/04/30 04:01:21;;;;;;;18.85;11.23;;;14.20;69.30;;;;;;5092303;28;20530;-84
2021/04/30 04:03:47;;;;;;;20.30;11.20;;;14.50;67.80;;;;;;5093977;28;20032;-84
2021/04/30 04:06:13;;;;;;;18.80;12.02;;;14.80;66.80;;;;;;5092228;28;20038;-83
2021/04/30 04:08:38;;;;;;;16.80;11.35;;;15.00;66.50;;;;;;5091965;28;20031;-83
2021/04/30 04:11:04;;;;;;;12.68;10.27;;;15.20;65.70;;;;;;5093966;28;20026;-82
2021/04/30 04:13:30;;;;;;;17.00;10.77;;;15.30;65.00;;;;;;5091636;28;20040;-83
2021/04/30 04:15:59;;;;;;;19.10;11.55;;;15.60;64.30;;;;;;5092674;28;20028;-83
2021/04/30 04:18:25;;;;;;;13.90;10.05;;;15.80;63.70;;;;;;5093454;28;20073;-81
2021/04/30 04:20:51;;;;;;;14.63;11.00;;;16.00;63.10;;;;;;5092070;28;20115;-82
2021/04/30 04:23:17;;;;;;;15.50;11.23;;;16.30;62.60;;;;;;5092542;28;20020;-82
2021/04/30 04:25:43;;;;;;;14.45;10.82;;;16.60;62.50;;;;;;5088261;28;20485;-82
2021/04/30 04:28:09;;;;;;;17.38;10.18;;;16.90;61.50;;;;;;5091384;28;20478;-77
2021/04/30 04:30:34;;;;;;;16.98;10.60;;;17.20;61.20;;;;;;5087246;28;20024;-80
2021/04/30 04:33:00;;;;;;;13.23;10.57;;;17.50;59.80;;;;;;5090947;28;20409;-80
2021/04/30 04:35:27;;;;;;;14.57;9.85;;;17.70;58.90;;;;;;5089028;28;20062;-81
2021/04/30 04:37:52;;;;;;;17.52;10.68;;;17.80;57.70;;;;;;5090116;28;20374;-81
2021/04/30 04:40:18;;;;;;;12.35;9.90;;;17.90;57.70;;;;;;5093563;28;20028;-82
2021/04/30 04:42:45;;;;;;;16.35;10.57;;;18.10;57.50;;;;;;5092601;28;20020;-81
2021/04/30 04:45:13;;;;;;;14.27;10.35;;;18.50;57.10;;;;;;5091730;28;20020;-80
2021/04/30 04:47:39;;;;;;;14.85;10.35;;;18.80;56.20;;;;;;5091995;28;20016;-81
2021/04/30 04:50:05;;;;;;;15.25;9.82;;;19.00;55.50;;;;;;5092976;28;20024;-81
2021/04/30 04:52:31;;;;;;;16.35;10.70;;;19.30;54.80;;;;;;5091312;28;20024;-80
2021/04/30 04:54:57;;;;;;;14.25;10.40;;;19.50;54.40;;;;;;5091680;28;20012;-81
2021/04/30 04:57:23;;;;;;;19.48;10.50;;;19.70;53.80;;;;;;5093021;28;20051;-80
2021/04/30 04:59:48;;;;;;;15.45;9.93;;;19.90;53.60;;;;;;5091346;28;20016;-81
2021/04/30 05:02:14;;;;;;;21.35;11.55;;;20.20;53.30;;;;;;5092868;28;20012;-82
2021/04/30 05:04:40;;;;;;;11.85;9.40;;;20.40;52.80;;;;;;5091360;28;20450;-80
2021/04/30 05:07:05;;;;;;;13.23;10.13;;;20.40;52.10;;;;;;5092990;28;20023;-81
2021/04/30 05:09:31;;;;;;;14.55;10.25;;;20.20;51.30;;;;;;5092256;28;20024;-82
2021/04/30 05:11:57;;;;;;;19.45;10.40;;;19.80;51.50;;;;;;5091260;28;20106;-83
2021/04/30 05:14:22;;;;;;;17.85;10.50;;;19.50;52.40;;;;;;5092955;28;20080;-82
2021/04/30 05:16:49;;;;;;;12.75;10.32;;;19.40;53.20;;;;;;5091239;28;20146;-81
2021/04/30 05:19:16;;;;;;;11.68;9.07;;;19.60;53.60;;;;;;5088141;28;20028;-80
2021/04/30 05:21:44;;;;;;;12.20;10.05;;;19.70;52.80;;;;;;5089957;28;20067;-81
2021/04/30 05:24:13;;;;;;;20.30;10.88;;;19.60;52.60;;;;;;5093533;28;20012;-79
2021/04/30 05:26:39;;;;;;;14.38;9.77;;;19.40;53.10;;;;;;5088024;28;20477;-75
2021/04/30 05:29:05;;;;;;;12.90;8.63;;;19.20;53.70;;;;;;5093821;28;20024;-81
2021/04/30 05:31:35;;;;;;;13.93;9.18;;;19.00;54.10;;;;;;5102191;28;20020;-79
2021/04/30 05:34:02;;;;;;;11.43;8.60;;;18.80;54.40;;;;;;5102827;28;20044;-76
2021/04/30 05:36:28;;;;;;;13.43;9.38;;;18.60;55.00;;;;;;5106121;28;20027;-80
2021/04/30 05:38:53;;;;;;;13.07;8.57;;;18.70;55.80;;;;;;5104642;28;20020;-80
2021/04/30 05:41:19;;;;;;;15.88;8.15;;;18.90;56.00;;;;;;5112766;28;20028;-80
2021/04/30 05:43:45;;;;;;;11.70;6.90;;;19.00;55.30;;;;;;5116549;28;20012;-80
2021/04/30 05:46:10;;;;;;;12.48;8.18;;;19.00;54.40;;;;;;5108242;28;20031;-81
2021/04/30 05:48:36;;;;;;;13.57;7.68;;;18.90;54.10;;;;;;5105299;28;20021;-80
2021/04/30 05:51:02;;;;;;;10.23;6.75;;;18.70;54.60;;;;;;5101429;28;20473;-78
2021/04/30 05:53:28;;;;;;;9.65;7.00;;;18.80;54.90;;;;;;5096817;28;20439;-79
2021/04/30 05:55:54;;;;;;;9.88;7.15;;;18.80;55.10;;;;;;5093056;28;20377;-80
2021/04/30 05:58:20;;;;;;;10.43;6.93;;;18.90;55.20;;;;;;5086456;28;20024;-80
2021/04/30 06:00:45;;;;;;;10.43;6.72;;;18.80;54.90;;;;;;5091677;28;20082;-80
2021/04/30 06:03:11;;;;;;;10.45;7.50;;;18.70;54.90;;;;;;5097808;28;20028;-79
2021/04/30 06:05:37;;;;;;;12.30;8.10;;;18.40;55.70;;;;;;5094308;28;20060;-81
2021/04/30 06:08:03;;;;;;;15.50;7.20;;;18.30;56.20;;;;;;5093864;28;20073;-80
2021/04/30 06:10:29;;;;;;;13.43;6.95;;;18.10;56.60;;;;;;5091060;28;20042;-80
2021/04/30 06:12:54;;;;;;;11.63;7.22;;;18.00;57.10;;;;;;5089323;28;20041;-81
2021/04/30 06:15:20;;;;;;;10.88;6.47;;;17.90;57.40;;;;;;5082399;28;20031;-81
2021/04/30 06:17:46;;;;;;;11.27;6.63;;;17.80;57.70;;;;;;5086551;28;20020;-82
2021/04/30 06:20:12;;;;;;;9.65;6.40;;;17.80;58.00;;;;;;5091523;28;20378;-81
2021/04/30 06:22:38;;;;;;;9.98;6.88;;;17.70;58.30;;;;;;5091181;28;20028;-81
2021/04/30 06:25:04;;;;;;;11.55;5.70;;;17.70;58.70;;;;;;5090234;28;20082;-82
2021/04/30 06:27:30;;;;;;;8.27;5.28;;;17.90;59.00;;;;;;5090860;28;20036;-83
2021/04/30 06:29:56;;;;;;;11.00;6.75;;;18.20;58.20;;;;;;5092778;28;20355;-83
2021/04/30 06:32:22;;;;;;;8.32;5.13;;;18.80;58.00;;;;;;5089677;28;20016;-84
2021/04/30 06:34:47;;;;;;;13.40;6.30;;;19.50;57.00;;;;;;5091981;28;20028;-83
2021/04/30 06:37:13;;;;;;;9.27;4.63;;;20.00;55.10;;;;;;5087076;28;20059;-84
2021/04/30 06:39:39;;;;;;;9.02;6.20;;;20.50;53.80;;;;;;5089849;28;20023;-83
2021/04/30 06:42:06;;;;;;;6.55;4.63;;;20.80;52.60;;;;;;5085217;28;20020;-82
2021/04/30 06:44:32;;;;;;;6.93;4.90;;;21.20;51.60;;;;;;5085053;28;20028;-81
2021/04/30 06:46:59;;;;;;;8.48;4.53;;;21.40;50.40;;;;;;5083858;28;20028;-82
2021/04/30 06:49:25;;;;;;;12.40;5.80;;;21.40;49.50;;;;;;5090715;28;20040;-82
2021/04/30 06:51:50;;;;;;;9.82;7.20;;;21.30;49.50;;;;;;5082696;28;20347;-81
2021/04/30 06:54:17;;;;;;;10.40;7.00;;;21.10;50.20;;;;;;5087053;28;20443;-80
2021/04/30 06:56:43;;;;;;;8.25;6.47;;;21.30;51.20;;;;;;5093196;28;20028;-81
2021/04/30 06:59:09;;;;;;;13.68;6.65;;;21.80;50.40;;;;;;5088492;28;20017;-81
2021/04/30 07:01:35;;;;;;;20.42;6.97;;;22.30;49.70;;;;;;5090575;28;20060;-75
2021/04/30 07:04:00;;;;;;;6.40;4.38;;;22.90;49.40;;;;;;5091402;28;20042;-77
2021/04/30 07:06:26;;;;;;;7.95;4.13;;;23.30;46.90;;;;;;5086252;28;20036;-76
2021/04/30 07:08:53;;;;;;;7.40;4.90;;;23.50;46.10;;;;;;5091679;28;20012;-80
2021/04/30 07:11:18;;;;;;;8.05;4.40;;;23.50;45.60;;;;;;5092709;28;20161;-76
2021/04/30 07:13:44;;;;;;;6.57;4.47;;;23.70;45.40;;;;;;5087857;28;20190;-81
2021/04/30 07:16:10;;;;;;;11.85;6.30;;;23.90;45.40;;;;;;5092510;28;20461;-77
2021/04/30 07:18:36;;;;;;;19.17;6.68;;;24.20;45.00;;;;;;5086885;28;20150;-82
2021/04/30 07:21:02;;;;;;;9.25;5.07;;;24.50;43.90;;;;;;5087080;28;20047;-83
2021/04/30 07:23:28;;;;;;;10.05;5.93;;;24.20;43.00;;;;;;5091092;28;20076;-84
2021/04/30 07:25:54;;;;;;;7.70;4.63;;;24.00;43.40;;;;;;5093887;28;20031;-84
2021/04/30 07:28:20;;;;;;;6.50;4.10;;;23.70;43.30;;;;;;5092700;28;20024;-84
2021/04/30 07:30:46;;;;;;;5.15;3.70;;;23.40;43.10;;;;;;5092035;28;20027;-85
2021/04/30 07:33:12;;;;;;;6.32;3.70;;;22.90;43.40;;;;;;5099801;28;20020;-85
2021/04/30 07:35:41;;;;;;;7.55;3.95;;;22.30;43.50;;;;;;5095226;28;20461;-83
2021/04/30 07:38:08;;;;;;;6.90;4.25;;;21.80;44.70;;;;;;5092485;28;20046;-82
2021/04/30 07:40:37;;;;;;;9.02;3.85;;;21.40;45.80;;;;;;5106759;28;20018;-83
2021/04/30 07:43:03;;;;;;;7.00;3.28;;;21.20;46.50;;;;;;5118223;28;20011;-84
2021/04/30 07:45:29;;;;;;;5.70;3.53;;;21.40;47.10;;;;;;5104662;28;20020;-81
2021/04/30 07:47:55;;;;;;;8.50;3.50;;;22.00;46.40;;;;;;5115332;28;20016;-85
2021/04/30 07:50:20;;;;;;;7.50;3.20;;;22.60;45.60;;;;;;5115960;28;20017;-83
2021/04/30 07:52:46;;;;;;;5.97;3.53;;;23.40;44.00;;;;;;5110711;28;20004;-85
2021/04/30 07:55:12;;;;;;;5.03;3.55;;;23.80;43.30;;;;;;5108736;28;20024;-84
2021/04/30 07:57:38;;;;;;;4.50;2.55;;;24.10;42.60;;;;;;5099053;28;20110;-84
2021/04/30 08:00:05;;;;;;;4.22;2.47;;;24.20;41.60;;;;;;5097939;28;20478;-85
2021/04/30 08:02:31;;;;;;;8.73;3.10;;;24.20;41.00;;;;;;5098878;28;20019;-85
2021/04/30 08:04:57;;;;;;;5.50;3.00;;;24.20;40.00;;;;;;5094450;28;20417;-85
2021/04/30 08:07:22;;;;;;;3.47;2.55;;;24.30;40.40;;;;;;5094599;28;20115;-84
2021/04/30 08:09:48;;;;;;;5.97;3.38;;;24.50;40.40;;;;;;5094104;28;20031;-83
2021/04/30 08:12:16;;;;;;;6.40;2.65;;;24.80;40.40;;;;;;5093692;28;20040;-84
2021/04/30 08:14:42;;;;;;;6.30;3.17;;;25.10;40.30;;;;;;5094364;28;20020;-84
2021/04/30 08:17:08;;;;;;;7.20;3.15;;;25.40;39.80;;;;;;5094347;28;20024;-84
2021/04/30 08:19:33;;;;;;;4.68;2.88;;;25.50;39.10;;;;;;5094221;28;20046;-84
2021/04/30 08:21:59;;;;;;;6.03;2.88;;;25.70;39.00;;;;;;5094032;28;20054;-84
2021/04/30 08:24:25;;;;;;;5.25;2.97;;;25.80;39.10;;;;;;5093872;28;20012;-81
2021/04/30 08:26:50;;;;;;;6.15;2.40;;;25.90;38.50;;;;;;5092726;28;20040;-84
2021/04/30 08:29:17;;;;;;;7.15;2.70;;;25.80;37.90;;;;;;5093433;28;20016;-85
2021/04/30 08:31:43;;;;;;;4.32;2.42;;;25.70;37.40;;;;;;5094305;28;20024;-85
2021/04/30 08:34:09;;;;;;;4.07;2.70;;;25.70;37.50;;;;;;5092625;28;20020;-85
2021/04/30 08:36:35;;;;;;;8.75;3.72;;;25.60;37.80;;;;;;5092545;28;20028;-85
2021/04/30 08:39:00;;;;;;;8.88;3.75;;;25.60;38.30;;;;;;5092500;28;20024;-84
2021/04/30 08:41:27;;;;;;;5.43;2.60;;;25.60;38.60;;;;;;5093868;28;20076;-85
2021/04/30 08:43:53;;;;;;;5.88;2.58;;;25.70;38.60;;;;;;5092731;28;20423;-85
2021/04/30 08:46:19;;;;;;;5.88;3.10;;;25.80;37.30;;;;;;5092289;28;20024;-85
2021/04/30 08:48:45;;;;;;;9.90;2.63;;;25.80;37.80;;;;;;5093794;28;20069;-86
2021/04/30 08:51:11;;;;;;;6.20;2.72;;;25.60;37.10;;;;;;5093707;28;20076;-86
2021/04/30 08:53:40;;;;;;;5.22;2.35;;;25.30;36.80;;;;;;5093816;28;20046;-86
2021/04/30 08:56:06;;;;;;;6.32;2.70;;;25.10;37.60;;;;;;5092364;28;20024;-85
2021/04/30 08:58:38;;;;;;;5.38;2.83;;;25.10;38.20;;;;;;5093602;28;20024;-84
2021/04/30 09:01:05;;;;;;;8.50;3.90;;;25.10;38.40;;;;;;5092199;28;20027;-84
2021/04/30 09:03:34;;;;;;;6.53;2.90;;;25.30;38.70;;;;;;5092177;28;20073;-84
2021/04/30 09:06:00;;;;;;;6.45;3.60;;;25.20;38.20;;;;;;5092091;28;20036;-84
2021/04/30 09:08:27;;;;;;;7.70;2.92;;;25.10;38.60;;;;;;5091729;28;20062;-82
2021/04/30 09:10:56;;;;;;;5.18;2.60;;;24.90;38.50;;;;;;5092551;28;20470;-84
2021/04/30 09:13:23;;;;;;;5.88;2.80;;;25.20;39.00;;;;;;5092493;28;20039;-84
2021/04/30 09:16:05;;;;;;;13.07;3.13;;;25.30;38.50;;;;;;5093974;28;20082;-83
2021/04/30 09:18:32;;;;;;;5.80;3.00;;;25.40;38.70;;;;;;5092839;28;20016;-82
2021/04/30 09:21:12;;;;;;;4.18;2.70;;;25.60;38.60;;;;;;5092097;28;20020;-84
2021/04/30 09:23:48;;;;;;;6.13;3.22;;;25.60;37.70;;;;;;5095165;28;20028;-84
2021/04/30 09:26:25;;;;;;;5.88;2.85;;;25.60;38.30;;;;;;5096394;28;20028;-84
2021/04/30 09:29:02;;;;;;;7.18;3.15;;;25.70;38.30;;;;;;5096052;28;20051;-82
2021/04/30 09:31:34;;;;;;;4.22;2.50;;;25.80;38.70;;;;;;5096261;28;20030;-84
2021/04/30 09:34:25;;;;;;;6.57;2.90;;;25.90;38.50;;;;;;5096156;28;20073;-83
2021/04/30 09:37:04;;;;;;;7.25;2.45;;;25.80;39.00;;;;;;5096053;28;20081;-85
2021/04/30 09:39:46;;;;;;;5.20;2.90;;;25.70;38.90;;;;;;5084136;28;20022;-83
2021/04/30 09:42:15;;;;;;;6.65;4.30;;;25.50;39.00;;;;;;5096041;28;20016;-85
2021/04/30 09:44:43;;;;;;;8.88;5.50;;;25.30;39.30;;;;;;5096026;28;20063;-85
2021/04/30 09:47:22;;;;;;;5.15;2.75;;;25.30;39.50;;;;;;5082110;28;20428;-83
2021/04/30 09:50:21;;;;;;;6.38;4.03;;;25.30;39.70;;;;;;5084135;28;20020;-84
2021/04/30 09:53:17;;;;;;;10.63;3.25;;;25.40;39.80;;;;;;5101723;28;20016;-84
2021/04/30 09:55:51;;;;;;;6.32;3.08;;;25.50;40.20;;;;;;5104511;28;20016;-78
2021/04/30 09:58:19;;;;;;;8.57;3.10;;;25.60;40.00;;;;;;5121572;28;20016;-83
2021/04/30 10:00:57;;;;;;;5.65;2.90;;;25.40;39.70;;;;;;5110500;28;20017;-82
2021/04/30 10:03:28;;;;;;;6.00;3.35;;;25.30;39.80;;;;;;5118563;28;20035;-84
2021/04/30 10:06:01;;;;;;;6.60;3.05;;;25.50;40.90;;;;;;5114367;28;20095;-85
2021/04/30 10:08:27;;;;;;;4.70;2.63;;;25.70;40.00;;;;;;5117159;28;20041;-83
2021/04/30 10:10:53;;;;;;;16.20;3.65;;;25.80;39.20;;;;;;5107264;28;20462;-83
2021/04/30 10:13:18;;;;;;;6.63;3.22;;;25.70;39.40;;;;;;5101336;28;20051;-84
2021/04/30 10:15:44;;;;;;;13.88;3.45;;;25.80;39.20;;;;;;5098520;28;20031;-85
2021/04/30 10:18:10;;;;;;;7.43;2.60;;;26.00;39.30;;;;;;5097400;28;20024;-84
2021/04/30 10:20:35;;;;;;;4.97;2.65;;;26.10;38.50;;;;;;5095860;28;20020;-84
2021/04/30 10:23:06;;;;;;;8.10;5.18;;;26.10;38.60;;;;;;5094686;28;20020;-84
2021/04/30 10:25:32;;;;;;;5.07;2.53;;;26.30;38.60;;;;;;5096304;28;20107;-84
2021/04/30 10:28:01;;;;;;;10.00;3.33;;;26.20;38.50;;;;;;5095079;28;20408;-85
2021/04/30 10:30:48;;;;;;;9.98;4.75;;;26.30;38.80;;;;;;5095738;28;20463;-83
2021/04/30 10:33:26;;;;;;;4.57;2.40;;;26.40;38.80;;;;;;5094964;28;20028;-85
2021/04/30 10:36:15;;;;;;;6.35;3.40;;;26.60;38.40;;;;;;5094038;28;20347;-84
2021/04/30 10:38:50;;;;;;;9.27;3.50;;;26.90;38.70;;;;;;5086056;28;20539;-82
2021/04/30 10:41:36;;;;;;;6.05;3.33;;;27.10;38.30;;;;;;5096001;28;20327;-84
2021/04/30 10:44:28;;;;;;;7.88;3.50;;;27.40;38.10;;;;;;5095729;28;20052;-84
2021/04/30 10:47:12;;;;;;;5.95;2.95;;;27.40;38.10;;;;;;5094218;28;20311;-85
2021/04/30 10:49:39;;;;;;;5.63;2.83;;;27.70;37.70;;;;;;5080777;28;20051;-83
2021/04/30 10:52:16;;;;;;;6.47;3.10;;;27.70;36.80;;;;;;5092737;28;20028;-82
2021/04/30 10:54:44;;;;;;;4.97;2.58;;;27.50;36.90;;;;;;5094369;28;20019;-84
2021/04/30 10:57:15;;;;;;;8.55;2.80;;;27.30;36.80;;;;;;5094667;28;20032;-84
2021/04/30 10:59:51;;;;;;;17.02;4.38;;;27.00;37.30;;;;;;5094232;28;20043;-84
2021/04/30 11:02:30;;;;;;;9.50;3.65;;;26.70;38.30;;;;;;5095911;28;20099;-83
2021/04/30 11:05:16;;;;;;;10.23;3.60;;;26.80;38.30;;;;;;5094133;28;20350;-85
2021/04/30 11:07:41;;;;;;;5.40;2.97;;;26.90;37.60;;;;;;5094461;28;20032;-85
2021/04/30 11:10:23;;;;;;;7.00;2.85;;;26.90;37.90;;;;;;5094202;28;20205;-84
2021/04/30 11:13:06;;;;;;;7.35;3.15;;;26.80;37.30;;;;;;5095981;28;20115;-85
2021/04/30 11:15:46;;;;;;;8.02;3.33;;;26.60;37.90;;;;;;5094407;28;20067;-84
2021/04/30 11:18:19;;;;;;;7.03;3.55;;;26.60;38.00;;;;;;5094168;28;20530;-84
2021/04/30 11:21:03;;;;;;;5.10;2.90;;;26.30;38.40;;;;;;5081365;28;20031;-84
2021/04/30 11:23:36;;;;;;;5.70;3.22;;;26.00;38.60;;;;;;5095223;28;20099;-84
2021/04/30 11:26:32;;;;;;;6.57;3.60;;;25.70;39.10;;;;;;5095405;28;20063;-84
2021/04/30 11:28:58;;;;;;;9.05;4.25;;;25.40;39.20;;;;;;5093898;28;20019;-84
2021/04/30 11:31:29;;;;;;;3.45;2.25;;;24.90;40.20;;;;;;5095051;28;20096;-83
2021/04/30 11:34:15;;;;;;;7.03;3.13;;;24.60;40.70;;;;;;5093564;28;20024;-82
2021/04/30 11:36:42;;;;;;;6.70;2.85;;;24.30;41.30;;;;;;5094902;28;20024;-82
2021/04/30 11:39:20;;;;;;;7.95;2.90;;;24.10;41.90;;;;;;5093546;28;20036;-83
2021/04/30 11:41:47;;;;;;;7.13;2.60;;;23.80;42.20;;;;;;5093751;28;20021;-83
2021/04/30 11:44:15;;;;;;;6.38;3.33;;;23.70;42.90;;;;;;5094566;28;20028;-83
2021/04/30 11:46:41;;;;;;;5.90;2.63;;;23.50;43.00;;;;;;5093396;28;20123;-83
2021/04/30 11:49:07;;;;;;;6.22;3.38;;;23.30;43.40;;;;;;5093730;28;20108;-83
2021/04/30 11:51:51;;;;;;;8.88;3.05;;;23.20;44.00;;;;;;5095112;28;20454;-84
2021/04/30 11:54:25;;;;;;;9.48;3.58;;;23.10;43.90;;;;;;5094680;28;20055;-83
2021/04/30 11:57:00;;;;;;;8.88;3.67;;;22.90;44.00;;;;;;5094703;28;20020;-83
2021/04/30 11:59:27;;;;;;;7.93;3.03;;;23.00;44.30;;;;;;5093038;28;20047;-83
2021/04/30 12:02:23;;;;;;;7.97;3.20;;;23.00;44.30;;;;;;5093258;28;20390;-83
2021/04/30 12:04:51;;;;;;;11.75;4.28;;;23.00;44.70;;;;;;5093010;28;20378;-82
2021/04/30 12:07:19;;;;;;;9.20;4.20;;;23.10;44.90;;;;;;5094208;28;20088;-83
2021/04/30 12:09:45;;;;;;;14.18;4.55;;;23.20;44.90;;;;;;5094452;28;20024;-78
2021/04/30 12:12:22;;;;;;;12.55;5.28;;;23.20;44.50;;;;;;5094501;28;20036;-83
2021/04/30 12:15:07;;;;;;;9.75;4.40;;;23.10;44.80;;;;;;5092899;28;20027;-84
2021/04/30 12:17:40;;;;;;;8.57;4.18;;;23.20;44.80;;;;;;5081152;28;20093;-82
2021/04/30 12:20:23;;;;;;;13.32;4.88;;;23.30;45.00;;;;;;5094189;28;20074;-82
2021/04/30 12:22:55;;;;;;;19.80;4.57;;;23.40;45.30;;;;;;5094102;28;20040;-82
2021/04/30 12:25:23;;;;;;;8.27;3.97;;;23.50;45.20;;;;;;5093933;28;20062;-83
2021/04/30 12:27:50;;;;;;;31.73;10.68;;;23.60;45.20;;;;;;5095565;28;20081;-83
2021/04/30 12:30:31;;;;;;;25.58;9.65;;;23.70;45.00;;;;;;5092612;28;20020;-82
2021/04/30 12:32:58;;;;;;;6.60;3.67;;;23.70;44.90;;;;;;5092802;28;20016;-83
2021/04/30 12:35:24;;;;;;;11.60;3.53;;;23.60;45.00;;;;;;5092575;28;20055;-82
2021/04/30 12:37:51;;;;;;;5.40;3.25;;;23.50;44.70;;;;;;5092653;28;20426;-82
2021/04/30 12:40:23;;;;;;;9.05;4.18;;;23.30;45.70;;;;;;5092546;28;20027;-84
2021/04/30 12:42:51;;;;;;;12.73;5.55;;;23.20;45.10;;;;;;5092152;28;20073;-83
2021/04/30 12:45:18;;;;;;;11.23;4.53;;;23.20;45.40;;;;;;5092550;28;20035;-83